Apollon — SVA3600 — position and weather

sailwx.info

Track history (hours):
 
Tides and Currents Weather Stations Pressure Air Temp Water Temp Dewpoint Dewpoint Depression Visibility Wind Speed Wind Dir Waves Ship Positions

Apollon

Last reported at 2017-Nov-23 12:22 UTC. Time now 2017-Nov-23 20:43 UTC.
Position N 37°57' E 023°34'.

Length 39 m; draft 5 m.

Type: Ship. MMSI: 241049000.

Date/timePositionNaut miles runAvg speedWind from/ knotsBaromVisibWave heightAir tempDewpointWater temp
2017-Nov-23 12:22N 37°57' E 023°34'410.5
2017-Nov-23 12:00N 38°00' E 023°31'5 9.9
2017-Nov-23 11:30N 37°58' E 023°25'1 2.5
2017-Nov-23 10:59N 37°58' E 023°24'0 0.0
2017-Nov-23 10:30N 37°58' E 023°24'1 1.7
2017-Nov-23 09:59N 37°57' E 023°24'1 2.4
2017-Nov-23 09:30N 37°58' E 023°23'0 0.5
2017-Nov-23 09:00N 37°58' E 023°23'0 0.3
2017-Nov-23 08:30N 37°58' E 023°23'0 0.5
2017-Nov-23 08:00N 37°58' E 023°23'1 1.6
2017-Nov-23 07:30N 37°57' E 023°23'611.4
2017-Nov-23 07:01N 37°52' E 023°25'612.0
2017-Nov-23 06:30N 37°54' E 023°33'3 6.6
2017-Nov-23 06:00N 37°57' E 023°36'  
2017-Nov-17 11:32N 37°57' E 023°37'0 0.0
2017-Nov-17 11:27N 37°57' E 023°37'0 0.0
2017-Nov-17 11:00N 37°57' E 023°37'0 0.0
2017-Nov-17 10:30N 37°57' E 023°37'0 0.0
2017-Nov-17 10:00N 37°57' E 023°37'0 0.0
2017-Nov-17 09:30N 37°57' E 023°37'0 0.0
2017-Nov-17 08:59N 37°57' E 023°37'0 0.0
2017-Nov-17 08:30N 37°57' E 023°37'0 0.0
2017-Nov-17 08:00N 37°57' E 023°37'1 2.2
2017-Nov-17 07:30N 37°57' E 023°35'1 1.6
2017-Nov-17 06:59N 37°57' E 023°35'1 1.9
2017-Nov-17 06:31N 37°57' E 023°36'1 1.1
2017-Nov-17 06:00N 37°57' E 023°37'1 1.2
2017-Nov-17 05:30N 37°57' E 023°36'0 0.8
2017-Nov-17 04:59N 37°57' E 023°36'1 0.1
2017-Nov-16 12:50N 37°57' E 023°34'410.8
2017-Nov-16 12:30N 38°00' E 023°32'611.3
2017-Nov-16 12:00N 37°59' E 023°25'2 3.4
2017-Nov-16 11:30N 37°58' E 023°23'1 2.0
2017-Nov-16 10:59N 37°58' E 023°24'0 0.0
2017-Nov-16 10:30N 37°58' E 023°24'0 0.0
2017-Nov-16 10:00N 37°58' E 023°24'0 0.0
2017-Nov-16 09:29N 37°58' E 023°24'0 0.0
2017-Nov-16 09:00N 37°58' E 023°24'0 0.0
2017-Nov-16 08:30N 37°58' E 023°24'0 0.0
2017-Nov-16 08:00N 37°58' E 023°24'0 0.0
2017-Nov-16 07:30N 37°58' E 023°24'0 0.0
2017-Nov-16 06:59N 37°58' E 023°24'0 0.0
2017-Nov-16 06:30N 37°58' E 023°24'0 0.0
2017-Nov-16 05:59N 37°58' E 023°24'0 0.0
2017-Nov-16 05:30N 37°58' E 023°24'0 0.0
2017-Nov-16 05:00N 37°58' E 023°24'0 0.0
2017-Nov-16 04:30N 37°58' E 023°24'0 0.0
2017-Nov-16 04:00N 37°58' E 023°24'0 0.0
2017-Nov-16 03:31N 37°58' E 023°24'0 0.0
2017-Nov-16 03:01N 37°58' E 023°24'0 0.0
2017-Nov-16 02:30N 37°58' E 023°24'0 0.0
2017-Nov-16 02:00N 37°58' E 023°24'0 0.0
2017-Nov-16 01:30N 37°58' E 023°24'0 0.0
2017-Nov-16 00:59N 37°58' E 023°24'0 0.0
2017-Nov-16 00:30N 37°58' E 023°24'0 0.0
2017-Nov-16 00:01N 37°58' E 023°24'0 0.0
2017-Nov-15 23:30N 37°58' E 023°24'0 0.0
2017-Nov-15 23:00N 37°58' E 023°24'0 0.0
2017-Nov-15 22:30N 37°58' E 023°24'0 0.0
2017-Nov-15 22:00N 37°58' E 023°24'0 0.0
2017-Nov-15 21:31N 37°58' E 023°24'0 0.0
2017-Nov-15 21:00N 37°58' E 023°24'0 0.0
2017-Nov-15 20:30N 37°58' E 023°24'0 0.0
2017-Nov-15 20:00N 37°58' E 023°24'0 0.0
2017-Nov-15 19:30N 37°58' E 023°24'0 0.0
2017-Nov-15 19:00N 37°58' E 023°24'0 0.0
2017-Nov-15 18:29N 37°58' E 023°24'0 0.0
2017-Nov-15 18:00N 37°58' E 023°24'0 0.0
2017-Nov-15 17:30N 37°58' E 023°24'0 0.0
2017-Nov-15 17:01N 37°58' E 023°24'0 0.0
2017-Nov-15 16:30N 37°58' E 023°24'0 0.0
2017-Nov-15 16:00N 37°58' E 023°24'0 0.0
2017-Nov-15 15:30N 37°58' E 023°24'0 0.0
2017-Nov-15 15:00N 37°58' E 023°24'0 0.0
2017-Nov-15 14:29N 37°58' E 023°24'0 0.0
2017-Nov-15 14:00N 37°58' E 023°24'0 0.0
2017-Nov-15 13:30N 37°58' E 023°24'0 0.0
2017-Nov-15 13:00N 37°58' E 023°24'0 0.0
2017-Nov-15 12:30N 37°58' E 023°24'0 0.0
2017-Nov-15 11:59N 37°58' E 023°24'0 0.0
2017-Nov-15 11:30N 37°58' E 023°24'0 0.0
2017-Nov-15 11:00N 37°58' E 023°24'0 0.0
2017-Nov-15 10:30N 37°58' E 023°24'0 0.0
2017-Nov-15 10:00N 37°58' E 023°24'0 0.0
2017-Nov-15 09:29N 37°58' E 023°24'0 0.0
2017-Nov-15 08:59N 37°58' E 023°24'0 0.0
2017-Nov-15 08:29N 37°58' E 023°24'0 0.0
2017-Nov-15 08:00N 37°58' E 023°24'0 0.0
2017-Nov-15 07:30N 37°58' E 023°24'0 0.0
2017-Nov-15 07:00N 37°58' E 023°24'0 0.0
2017-Nov-15 06:30N 37°58' E 023°24'0 0.0
2017-Nov-15 05:59N 37°58' E 023°24'0 0.0
2017-Nov-15 05:30N 37°58' E 023°24'0 0.0
2017-Nov-15 05:00N 37°58' E 023°24'0 0.0
2017-Nov-15 04:29N 37°58' E 023°24'0 0.0
2017-Nov-15 04:00N 37°58' E 023°24'0 0.0
2017-Nov-15 03:30N 37°58' E 023°24'0 0.0
2017-Nov-15 03:00N 37°58' E 023°24'0 0.0
2017-Nov-15 02:31N 37°58' E 023°24'0 0.0
2017-Nov-15 02:01N 37°58' E 023°24'0 0.0
2017-Nov-15 01:31N 37°58' E 023°24'1 2.4
2017-Nov-15 01:00N 37°58' E 023°23'0 0.0
2017-Nov-15 00:30N 37°58' E 023°23'0 0.3
2017-Nov-15 00:00N 37°58' E 023°23'0 0.2
2017-Nov-14 23:30N 37°58' E 023°23'0 0.4
2017-Nov-14 23:00N 37°58' E 023°23'3 5.6
2017-Nov-14 22:30N 37°60' E 023°26'610.8
2017-Nov-14 21:59N 37°59' E 023°33'4 7.2
2017-Nov-14 21:30N 37°57' E 023°37'0 0.0
2017-Nov-14 21:00N 37°57' E 023°37'0 0.0
2017-Nov-14 11:17N 37°57' E 023°37'0 0.0
2017-Nov-14 11:00N 37°57' E 023°37'0 0.0
2017-Nov-14 10:29N 37°57' E 023°37'0 0.0
2017-Nov-14 10:00N 37°57' E 023°37'0 0.0
2017-Nov-14 09:30N 37°57' E 023°37'0 0.0
2017-Nov-14 09:00N 37°57' E 023°37'0 0.0
2017-Nov-14 08:30N 37°57' E 023°37'0 0.0
2017-Nov-14 08:00N 37°57' E 023°37'0 0.0
2017-Nov-14 07:30N 37°57' E 023°37'0 0.0
2017-Nov-14 07:00N 37°57' E 023°37'0 0.0
2017-Nov-14 06:30N 37°57' E 023°37'1 1.9
2017-Nov-14 06:00N 37°57' E 023°36'1 2.1
2017-Nov-14 05:30N 37°56' E 023°35'  
Track history (hours):
 
Tides and Currents Weather Stations Pressure Air Temp Water Temp Dewpoint Dewpoint Depression Visibility Wind Speed Wind Dir Waves Ship Positions

Apollon

Last reported at 2017-Nov-23 12:22 UTC. Time now 2017-Nov-23 20:43 UTC.
Position N 37°57' E 023°34'.

Length 39 m; draft 5 m.

Type: Ship. MMSI: 241049000.

Date/timePositionNaut miles runAvg speedWind from/ knotsBaromVisibWave heightAir tempDewpointWater temp
2017-Nov-23 12:22N 37°57' E 023°34'410.5
2017-Nov-23 12:00N 38°00' E 023°31'5 9.9
2017-Nov-23 11:30N 37°58' E 023°25'1 2.5
2017-Nov-23 10:59N 37°58' E 023°24'0 0.0
2017-Nov-23 10:30N 37°58' E 023°24'1 1.7
2017-Nov-23 09:59N 37°57' E 023°24'1 2.4
2017-Nov-23 09:30N 37°58' E 023°23'0 0.5
2017-Nov-23 09:00N 37°58' E 023°23'0 0.3
2017-Nov-23 08:30N 37°58' E 023°23'0 0.5
2017-Nov-23 08:00N 37°58' E 023°23'1 1.6
2017-Nov-23 07:30N 37°57' E 023°23'611.4
2017-Nov-23 07:01N 37°52' E 023°25'612.0
2017-Nov-23 06:30N 37°54' E 023°33'3 6.6
2017-Nov-23 06:00N 37°57' E 023°36'  
2017-Nov-17 11:32N 37°57' E 023°37'0 0.0
2017-Nov-17 11:27N 37°57' E 023°37'0 0.0
2017-Nov-17 11:00N 37°57' E 023°37'0 0.0
2017-Nov-17 10:30N 37°57' E 023°37'0 0.0
2017-Nov-17 10:00N 37°57' E 023°37'0 0.0
2017-Nov-17 09:30N 37°57' E 023°37'0 0.0
2017-Nov-17 08:59N 37°57' E 023°37'0 0.0
2017-Nov-17 08:30N 37°57' E 023°37'0 0.0
2017-Nov-17 08:00N 37°57' E 023°37'1 2.2
2017-Nov-17 07:30N 37°57' E 023°35'1 1.6
2017-Nov-17 06:59N 37°57' E 023°35'1 1.9
2017-Nov-17 06:31N 37°57' E 023°36'1 1.1
2017-Nov-17 06:00N 37°57' E 023°37'1 1.2
2017-Nov-17 05:30N 37°57' E 023°36'0 0.8
2017-Nov-17 04:59N 37°57' E 023°36'1 0.1
2017-Nov-16 12:50N 37°57' E 023°34'410.8
2017-Nov-16 12:30N 38°00' E 023°32'611.3
2017-Nov-16 12:00N 37°59' E 023°25'2 3.4
2017-Nov-16 11:30N 37°58' E 023°23'1 2.0
2017-Nov-16 10:59N 37°58' E 023°24'0 0.0
2017-Nov-16 10:30N 37°58' E 023°24'0 0.0
2017-Nov-16 10:00N 37°58' E 023°24'0 0.0
2017-Nov-16 09:29N 37°58' E 023°24'0 0.0
2017-Nov-16 09:00N 37°58' E 023°24'0 0.0
2017-Nov-16 08:30N 37°58' E 023°24'0 0.0
2017-Nov-16 08:00N 37°58' E 023°24'0 0.0
2017-Nov-16 07:30N 37°58' E 023°24'0 0.0
2017-Nov-16 06:59N 37°58' E 023°24'0 0.0
2017-Nov-16 06:30N 37°58' E 023°24'0 0.0
2017-Nov-16 05:59N 37°58' E 023°24'0 0.0
2017-Nov-16 05:30N 37°58' E 023°24'0 0.0
2017-Nov-16 05:00N 37°58' E 023°24'0 0.0
2017-Nov-16 04:30N 37°58' E 023°24'0 0.0
2017-Nov-16 04:00N 37°58' E 023°24'0 0.0
2017-Nov-16 03:31N 37°58' E 023°24'0 0.0
2017-Nov-16 03:01N 37°58' E 023°24'0 0.0
2017-Nov-16 02:30N 37°58' E 023°24'0 0.0
2017-Nov-16 02:00N 37°58' E 023°24'0 0.0
2017-Nov-16 01:30N 37°58' E 023°24'0 0.0
2017-Nov-16 00:59N 37°58' E 023°24'0 0.0
2017-Nov-16 00:30N 37°58' E 023°24'0 0.0
2017-Nov-16 00:01N 37°58' E 023°24'0 0.0
2017-Nov-15 23:30N 37°58' E 023°24'0 0.0
2017-Nov-15 23:00N 37°58' E 023°24'0 0.0
2017-Nov-15 22:30N 37°58' E 023°24'0 0.0
2017-Nov-15 22:00N 37°58' E 023°24'0 0.0
2017-Nov-15 21:31N 37°58' E 023°24'0 0.0
2017-Nov-15 21:00N 37°58' E 023°24'0 0.0
2017-Nov-15 20:30N 37°58' E 023°24'0 0.0
2017-Nov-15 20:00N 37°58' E 023°24'0 0.0
2017-Nov-15 19:30N 37°58' E 023°24'0 0.0
2017-Nov-15 19:00N 37°58' E 023°24'0 0.0
2017-Nov-15 18:29N 37°58' E 023°24'0 0.0
2017-Nov-15 18:00N 37°58' E 023°24'0 0.0
2017-Nov-15 17:30N 37°58' E 023°24'0 0.0
2017-Nov-15 17:01N 37°58' E 023°24'0 0.0
2017-Nov-15 16:30N 37°58' E 023°24'0 0.0
2017-Nov-15 16:00N 37°58' E 023°24'0 0.0
2017-Nov-15 15:30N 37°58' E 023°24'0 0.0
2017-Nov-15 15:00N 37°58' E 023°24'0 0.0
2017-Nov-15 14:29N 37°58' E 023°24'0 0.0
2017-Nov-15 14:00N 37°58' E 023°24'0 0.0
2017-Nov-15 13:30N 37°58' E 023°24'0 0.0
2017-Nov-15 13:00N 37°58' E 023°24'0 0.0
2017-Nov-15 12:30N 37°58' E 023°24'0 0.0
2017-Nov-15 11:59N 37°58' E 023°24'0 0.0
2017-Nov-15 11:30N 37°58' E 023°24'0 0.0
2017-Nov-15 11:00N 37°58' E 023°24'0 0.0
2017-Nov-15 10:30N 37°58' E 023°24'0 0.0
2017-Nov-15 10:00N 37°58' E 023°24'0 0.0
2017-Nov-15 09:29N 37°58' E 023°24'0 0.0
2017-Nov-15 08:59N 37°58' E 023°24'0 0.0
2017-Nov-15 08:29N 37°58' E 023°24'0 0.0
2017-Nov-15 08:00N 37°58' E 023°24'0 0.0
2017-Nov-15 07:30N 37°58' E 023°24'0 0.0
2017-Nov-15 07:00N 37°58' E 023°24'0 0.0
2017-Nov-15 06:30N 37°58' E 023°24'0 0.0
2017-Nov-15 05:59N 37°58' E 023°24'0 0.0
2017-Nov-15 05:30N 37°58' E 023°24'0 0.0
2017-Nov-15 05:00N 37°58' E 023°24'0 0.0
2017-Nov-15 04:29N 37°58' E 023°24'0 0.0
2017-Nov-15 04:00N 37°58' E 023°24'0 0.0
2017-Nov-15 03:30N 37°58' E 023°24'0 0.0
2017-Nov-15 03:00N 37°58' E 023°24'0 0.0
2017-Nov-15 02:31N 37°58' E 023°24'0 0.0
2017-Nov-15 02:01N 37°58' E 023°24'0 0.0
2017-Nov-15 01:31N 37°58' E 023°24'1 2.4
2017-Nov-15 01:00N 37°58' E 023°23'0 0.0
2017-Nov-15 00:30N 37°58' E 023°23'0 0.3
2017-Nov-15 00:00N 37°58' E 023°23'0 0.2
2017-Nov-14 23:30N 37°58' E 023°23'0 0.4
2017-Nov-14 23:00N 37°58' E 023°23'3 5.6
2017-Nov-14 22:30N 37°60' E 023°26'610.8
2017-Nov-14 21:59N 37°59' E 023°33'4 7.2
2017-Nov-14 21:30N 37°57' E 023°37'0 0.0
2017-Nov-14 21:00N 37°57' E 023°37'0 0.0
2017-Nov-14 11:17N 37°57' E 023°37'0 0.0
2017-Nov-14 11:00N 37°57' E 023°37'0 0.0
2017-Nov-14 10:29N 37°57' E 023°37'0 0.0
2017-Nov-14 10:00N 37°57' E 023°37'0 0.0
2017-Nov-14 09:30N 37°57' E 023°37'0 0.0
2017-Nov-14 09:00N 37°57' E 023°37'0 0.0
2017-Nov-14 08:30N 37°57' E 023°37'0 0.0
2017-Nov-14 08:00N 37°57' E 023°37'0 0.0
2017-Nov-14 07:30N 37°57' E 023°37'0 0.0
2017-Nov-14 07:00N 37°57' E 023°37'0 0.0
2017-Nov-14 06:30N 37°57' E 023°37'1 1.9
2017-Nov-14 06:00N 37°57' E 023°36'1 2.1
2017-Nov-14 05:30N 37°56' E 023°35'  

Dump ship's entire track history